sensor_id;sensor_type;location;lat;lon;timestamp;pressure;altitude;pressure_sealevel;temperature
31528;BMP280;10206;48.012;10.030;2023-12-29T00:02:02;94937.91;;;6.86
31528;BMP280;10206;48.012;10.030;2023-12-29T00:04:28;94939.47;;;6.74
31528;BMP280;10206;48.012;10.030;2023-12-29T00:06:55;94936.28;;;6.83
31528;BMP280;10206;48.012;10.030;2023-12-29T00:09:21;94937.28;;;6.72
31528;BMP280;10206;48.012;10.030;2023-12-29T00:11:50;94936.69;;;6.94
31528;BMP280;10206;48.012;10.030;2023-12-29T00:14:17;94929.28;;;6.95
31528;BMP280;10206;48.012;10.030;2023-12-29T00:16:43;94931.56;;;6.83
31528;BMP280;10206;48.012;10.030;2023-12-29T00:19:10;94930.91;;;6.62
31528;BMP280;10206;48.012;10.030;2023-12-29T00:21:37;94925.44;;;6.55
31528;BMP280;10206;48.012;10.030;2023-12-29T00:24:04;94921.22;;;6.46
31528;BMP280;10206;48.012;10.030;2023-12-29T00:26:30;94909.06;;;6.11
31528;BMP280;10206;48.012;10.030;2023-12-29T00:28:56;94910.22;;;6.23
31528;BMP280;10206;48.012;10.030;2023-12-29T00:31:22;94917.94;;;6.40
31528;BMP280;10206;48.012;10.030;2023-12-29T00:33:48;94917.84;;;6.53
31528;BMP280;10206;48.012;10.030;2023-12-29T00:36:18;94907.28;;;6.70
31528;BMP280;10206;48.012;10.030;2023-12-29T00:38:45;94907.25;;;6.99
31528;BMP280;10206;48.012;10.030;2023-12-29T00:41:11;94905.75;;;7.26
31528;BMP280;10206;48.012;10.030;2023-12-29T00:43:37;94904.22;;;7.17
31528;BMP280;10206;48.012;10.030;2023-12-29T00:46:04;94893.13;;;7.51
31528;BMP280;10206;48.012;10.030;2023-12-29T00:48:31;94891.31;;;7.53
31528;BMP280;10206;48.012;10.030;2023-12-29T00:50:57;94885.03;;;7.58
31528;BMP280;10206;48.012;10.030;2023-12-29T00:53:23;94871.41;;;7.51
31528;BMP280;10206;48.012;10.030;2023-12-29T00:55:49;94869.13;;;7.70
31528;BMP280;10206;48.012;10.030;2023-12-29T00:58:16;94858.78;;;7.69
31528;BMP280;10206;48.012;10.030;2023-12-29T01:00:42;94866.19;;;7.76
31528;BMP280;10206;48.012;10.030;2023-12-29T01:03:08;94882.16;;;8.02
31528;BMP280;10206;48.012;10.030;2023-12-29T01:05:34;94880.88;;;8.18
31528;BMP280;10206;48.012;10.030;2023-12-29T01:08:00;94889.41;;;8.14
31528;BMP280;10206;48.012;10.030;2023-12-29T01:10:26;94891.38;;;8.21
31528;BMP280;10206;48.012;10.030;2023-12-29T01:12:52;94891.38;;;7.99
31528;BMP280;10206;48.012;10.030;2023-12-29T01:15:18;94896.47;;;8.10
31528;BMP280;10206;48.012;10.030;2023-12-29T01:17:44;94890.66;;;7.98
31528;BMP280;10206;48.012;10.030;2023-12-29T01:20:11;94890.81;;;7.85
31528;BMP280;10206;48.012;10.030;2023-12-29T01:22:37;94886.66;;;7.62
31528;BMP280;10206;48.012;10.030;2023-12-29T01:25:03;94878.31;;;7.52
31528;BMP280;10206;48.012;10.030;2023-12-29T01:27:29;94873.94;;;7.41
31528;BMP280;10206;48.012;10.030;2023-12-29T01:29:56;94879.88;;;7.25
31528;BMP280;10206;48.012;10.030;2023-12-29T01:32:22;94879.75;;;7.38
31528;BMP280;10206;48.012;10.030;2023-12-29T01:34:48;94875.13;;;7.18
31528;BMP280;10206;48.012;10.030;2023-12-29T01:37:15;94867.84;;;7.05
31528;BMP280;10206;48.012;10.030;2023-12-29T01:39:41;94865.00;;;7.03
31528;BMP280;10206;48.012;10.030;2023-12-29T01:42:07;94861.56;;;7.03
31528;BMP280;10206;48.012;10.030;2023-12-29T01:44:33;94863.00;;;7.11
31528;BMP280;10206;48.012;10.030;2023-12-29T01:47:00;94869.72;;;7.18
31528;BMP280;10206;48.012;10.030;2023-12-29T01:49:27;94880.41;;;7.31
31528;BMP280;10206;48.012;10.030;2023-12-29T01:51:58;94873.94;;;7.41
31528;BMP280;10206;48.012;10.030;2023-12-29T01:54:27;94876.44;;;7.24
31528;BMP280;10206;48.012;10.030;2023-12-29T01:56:56;94875.13;;;7.18
31528;BMP280;10206;48.012;10.030;2023-12-29T01:59:25;94875.13;;;7.18
31528;BMP280;10206;48.012;10.030;2023-12-29T02:01:51;94866.75;;;7.01
31528;BMP280;10206;48.012;10.030;2023-12-29T02:04:18;94870.06;;;7.14
31528;BMP280;10206;48.012;10.030;2023-12-29T02:06:44;94867.00;;;7.10
31528;BMP280;10206;48.012;10.030;2023-12-29T02:09:11;94865.16;;;7.05
31528;BMP280;10206;48.012;10.030;2023-12-29T02:11:42;94869.06;;;6.89
31528;BMP280;10206;48.012;10.030;2023-12-29T02:14:08;94869.06;;;6.89
31528;BMP280;10206;48.012;10.030;2023-12-29T02:16:38;94858.91;;;6.82
31528;BMP280;10206;48.012;10.030;2023-12-29T02:19:55;94859.94;;;6.64
31528;BMP280;10206;48.012;10.030;2023-12-29T02:22:02;94860.78;;;6.59
31528;BMP280;10206;48.012;10.030;2023-12-29T02:24:28;94854.66;;;6.58
31528;BMP280;10206;48.012;10.030;2023-12-29T02:27:12;94858.78;;;6.87
31528;BMP280;10206;48.012;10.030;2023-12-29T02:29:45;94860.75;;;6.87
31528;BMP280;10206;48.012;10.030;2023-12-29T02:32:18;94853.19;;;6.93
31528;BMP280;10206;48.012;10.030;2023-12-29T02:34:45;94855.22;;;7.00
31528;BMP280;10206;48.012;10.030;2023-12-29T02:37:13;94854.63;;;6.94
31528;BMP280;10206;48.012;10.030;2023-12-29T02:39:40;94854.81;;;6.96
31528;BMP280;10206;48.012;10.030;2023-12-29T02:42:06;94851.28;;;7.16
31528;BMP280;10206;48.012;10.030;2023-12-29T02:44:32;94863.56;;;7.17
31528;BMP280;10206;48.012;10.030;2023-12-29T02:46:58;94859.06;;;7.20
31528;BMP280;10206;48.012;10.030;2023-12-29T02:49:27;94842.91;;;6.99
31528;BMP280;10206;48.012;10.030;2023-12-29T02:51:53;94828.81;;;7.08
31528;BMP280;10206;48.012;10.030;2023-12-29T02:54:19;94836.41;;;7.02
31528;BMP280;10206;48.012;10.030;2023-12-29T02:56:45;94832.09;;;7.14
31528;BMP280;10206;48.012;10.030;2023-12-29T02:59:11;94833.38;;;7.13
31528;BMP280;10206;48.012;10.030;2023-12-29T03:01:37;94822.00;;;7.30
31528;BMP280;10206;48.012;10.030;2023-12-29T03:04:03;94824.19;;;7.31
31528;BMP280;10206;48.012;10.030;2023-12-29T03:06:29;94814.22;;;7.34
31528;BMP280;10206;48.012;10.030;2023-12-29T03:08:56;94825.47;;;7.45
31528;BMP280;10206;48.012;10.030;2023-12-29T03:11:22;94819.31;;;7.52
31528;BMP280;10206;48.012;10.030;2023-12-29T03:13:48;94812.44;;;7.36
31528;BMP280;10206;48.012;10.030;2023-12-29T03:16:14;94820.22;;;7.32
31528;BMP280;10206;48.012;10.030;2023-12-29T03:18:40;94814.78;;;7.32
31528;BMP280;10206;48.012;10.030;2023-12-29T03:21:07;94824.41;;;7.48
31528;BMP280;10206;48.012;10.030;2023-12-29T03:23:33;94821.31;;;7.44
31528;BMP280;10206;48.012;10.030;2023-12-29T03:26:00;94818.09;;;7.61
31528;BMP280;10206;48.012;10.030;2023-12-29T03:28:26;94827.47;;;7.60
31528;BMP280;10206;48.012;10.030;2023-12-29T03:30:52;94818.97;;;7.86
31528;BMP280;10206;48.012;10.030;2023-12-29T03:33:18;94823.13;;;7.65
31528;BMP280;10206;48.012;10.030;2023-12-29T03:35:44;94820.41;;;7.95
31528;BMP280;10206;48.012;10.030;2023-12-29T03:38:10;94817.34;;;7.76
31528;BMP280;10206;48.012;10.030;2023-12-29T03:40:36;94817.34;;;7.76
31528;BMP280;10206;48.012;10.030;2023-12-29T03:43:03;94806.19;;;8.42
31528;BMP280;10206;48.012;10.030;2023-12-29T03:45:29;94804.00;;;8.55
31528;BMP280;10206;48.012;10.030;2023-12-29T03:47:55;94808.47;;;8.60
31528;BMP280;10206;48.012;10.030;2023-12-29T03:50:21;94803.22;;;8.62
31528;BMP280;10206;48.012;10.030;2023-12-29T03:52:47;94806.38;;;8.36
31528;BMP280;10206;48.012;10.030;2023-12-29T03:55:13;94796.28;;;8.69
31528;BMP280;10206;48.012;10.030;2023-12-29T03:57:41;94798.13;;;8.66
31528;BMP280;10206;48.012;10.030;2023-12-29T04:00:11;94798.66;;;8.72
31528;BMP280;10206;48.012;10.030;2023-12-29T04:02:37;94795.56;;;8.76
31528;BMP280;10206;48.012;10.030;2023-12-29T04:05:03;94795.56;;;8.76
31528;BMP280;10206;48.012;10.030;2023-12-29T04:07:31;94791.31;;;8.50
31528;BMP280;10206;48.012;10.030;2023-12-29T04:09:57;94792.25;;;8.45
31528;BMP280;10206;48.012;10.030;2023-12-29T04:12:23;94796.81;;;8.35
31528;BMP280;10206;48.012;10.030;2023-12-29T04:14:49;94792.59;;;8.42
31528;BMP280;10206;48.012;10.030;2023-12-29T04:17:15;94793.78;;;8.01
31528;BMP280;10206;48.012;10.030;2023-12-29T04:19:42;94800.56;;;8.40
31528;BMP280;10206;48.012;10.030;2023-12-29T04:22:08;94801.66;;;8.44
31528;BMP280;10206;48.012;10.030;2023-12-29T04:24:37;94799.47;;;8.50
31528;BMP280;10206;48.012;10.030;2023-12-29T04:27:03;94796.81;;;8.35
31528;BMP280;10206;48.012;10.030;2023-12-29T04:29:29;94804.00;;;8.40
31528;BMP280;10206;48.012;10.030;2023-12-29T04:31:55;94804.00;;;8.40
31528;BMP280;10206;48.012;10.030;2023-12-29T04:34:21;94805.84;;;8.30
31528;BMP280;10206;48.012;10.030;2023-12-29T04:36:48;94804.94;;;8.27
31528;BMP280;10206;48.012;10.030;2023-12-29T04:39:14;94804.06;;;8.25
31528;BMP280;10206;48.012;10.030;2023-12-29T04:41:40;94811.41;;;8.47
31528;BMP280;10206;48.012;10.030;2023-12-29T04:44:06;94810.13;;;8.56
31528;BMP280;10206;48.012;10.030;2023-12-29T04:46:32;94808.16;;;8.49
31528;BMP280;10206;48.012;10.030;2023-12-29T04:48:58;94808.16;;;8.49
31528;BMP280;10206;48.012;10.030;2023-12-29T04:51:25;94802.88;;;8.58
31528;BMP280;10206;48.012;10.030;2023-12-29T04:53:51;94816.09;;;9.02
31528;BMP280;10206;48.012;10.030;2023-12-29T04:56:17;94816.16;;;8.86
31528;BMP280;10206;48.012;10.030;2023-12-29T04:58:43;94821.28;;;8.75
31528;BMP280;10206;48.012;10.030;2023-12-29T05:01:09;94824.53;;;8.81
31528;BMP280;10206;48.012;10.030;2023-12-29T05:03:35;94822.88;;;8.93
31528;BMP280;10206;48.012;10.030;2023-12-29T05:06:01;94819.75;;;8.97
31528;BMP280;10206;48.012;10.030;2023-12-29T05:08:28;94824.09;;;9.00
31528;BMP280;10206;48.012;10.030;2023-12-29T05:10:54;94822.91;;;8.78
31528;BMP280;10206;48.012;10.030;2023-12-29T05:13:21;94818.88;;;8.86
31528;BMP280;10206;48.012;10.030;2023-12-29T05:15:47;94820.00;;;8.83
31528;BMP280;10206;48.012;10.030;2023-12-29T05:18:13;94822.72;;;8.83
31528;BMP280;10206;48.012;10.030;2023-12-29T05:20:39;94818.56;;;8.75
31528;BMP280;10206;48.012;10.030;2023-12-29T05:23:05;94820.25;;;8.63
31528;BMP280;10206;48.012;10.030;2023-12-29T05:25:31;94825.63;;;8.78
31528;BMP280;10206;48.012;10.030;2023-12-29T05:27:57;94827.19;;;8.49
31528;BMP280;10206;48.012;10.030;2023-12-29T05:30:23;94825.34;;;8.66
31528;BMP280;10206;48.012;10.030;2023-12-29T05:32:49;94828.47;;;8.55
31528;BMP280;10206;48.012;10.030;2023-12-29T05:35:16;94829.25;;;8.80
31528;BMP280;10206;48.012;10.030;2023-12-29T05:37:43;94824.28;;;8.94
31528;BMP280;10206;48.012;10.030;2023-12-29T05:40:09;94828.84;;;8.91
31528;BMP280;10206;48.012;10.030;2023-12-29T05:42:35;94821.56;;;8.94
31528;BMP280;10206;48.012;10.030;2023-12-29T05:45:01;94821.56;;;8.94
31528;BMP280;10206;48.012;10.030;2023-12-29T05:47:27;94822.41;;;9.12
31528;BMP280;10206;48.012;10.030;2023-12-29T05:49:54;94822.41;;;9.12
31528;BMP280;10206;48.012;10.030;2023-12-29T05:52:20;94828.16;;;9.16
31528;BMP280;10206;48.012;10.030;2023-12-29T05:54:46;94825.72;;;9.03
31528;BMP280;10206;48.012;10.030;2023-12-29T05:57:13;94825.28;;;9.14
31528;BMP280;10206;48.012;10.030;2023-12-29T05:59:39;94830.41;;;9.34
31528;BMP280;10206;48.012;10.030;2023-12-29T06:02:05;94842.75;;;9.35
31528;BMP280;10206;48.012;10.030;2023-12-29T06:04:31;94842.75;;;9.35
31528;BMP280;10206;48.012;10.030;2023-12-29T06:06:57;94851.56;;;9.43
31528;BMP280;10206;48.012;10.030;2023-12-29T06:09:23;94858.72;;;9.39
31528;BMP280;10206;48.012;10.030;2023-12-29T06:11:50;94863.59;;;9.65
31528;BMP280;10206;48.012;10.030;2023-12-29T06:14:16;94863.59;;;9.65
31528;BMP280;10206;48.012;10.030;2023-12-29T06:16:42;94856.53;;;9.62
31528;BMP280;10206;48.012;10.030;2023-12-29T06:19:09;94859.47;;;9.32
31528;BMP280;10206;48.012;10.030;2023-12-29T06:21:41;94861.56;;;9.73
31528;BMP280;10206;48.012;10.030;2023-12-29T06:24:09;94863.78;;;9.67
31528;BMP280;10206;48.012;10.030;2023-12-29T06:26:35;94853.69;;;9.52
31528;BMP280;10206;48.012;10.030;2023-12-29T06:29:01;94853.69;;;9.52
31528;BMP280;10206;48.012;10.030;2023-12-29T06:31:27;94837.19;;;9.26
31528;BMP280;10206;48.012;10.030;2023-12-29T06:33:53;94837.19;;;9.26
31528;BMP280;10206;48.012;10.030;2023-12-29T06:36:20;94844.66;;;9.42
31528;BMP280;10206;48.012;10.030;2023-12-29T06:38:46;94841.72;;;9.23
31528;BMP280;10206;48.012;10.030;2023-12-29T06:41:14;94841.72;;;9.23
31528;BMP280;10206;48.012;10.030;2023-12-29T06:43:40;94846.97;;;9.53
31528;BMP280;10206;48.012;10.030;2023-12-29T06:46:07;94836.22;;;9.38
31528;BMP280;10206;48.012;10.030;2023-12-29T06:48:34;94824.66;;;9.55
31528;BMP280;10206;48.012;10.030;2023-12-29T06:51:01;94821.38;;;9.32
31528;BMP280;10206;48.012;10.030;2023-12-29T06:53:28;94830.03;;;9.38
31528;BMP280;10206;48.012;10.030;2023-12-29T06:55:54;94827.66;;;9.67
31528;BMP280;10206;48.012;10.030;2023-12-29T06:58:20;94821.41;;;9.49
31528;BMP280;10206;48.012;10.030;2023-12-29T07:00:46;94833.16;;;9.59
31528;BMP280;10206;48.012;10.030;2023-12-29T07:03:15;94833.41;;;9.71
31528;BMP280;10206;48.012;10.030;2023-12-29T07:05:41;94833.47;;;9.63
31528;BMP280;10206;48.012;10.030;2023-12-29T07:08:07;94829.84;;;9.68
31528;BMP280;10206;48.012;10.030;2023-12-29T07:10:34;94819.03;;;9.53
31528;BMP280;10206;48.012;10.030;2023-12-29T07:13:00;94814.91;;;9.44
31528;BMP280;10206;48.012;10.030;2023-12-29T07:15:26;94825.72;;;9.27
31528;BMP280;10206;48.012;10.030;2023-12-29T07:17:52;94824.09;;;9.32
31528;BMP280;10206;48.012;10.030;2023-12-29T07:20:18;94812.00;;;9.42
31528;BMP280;10206;48.012;10.030;2023-12-29T07:22:44;94832.53;;;9.43
31528;BMP280;10206;48.012;10.030;2023-12-29T07:25:10;94828.94;;;9.41
31528;BMP280;10206;48.012;10.030;2023-12-29T07:27:37;94834.69;;;9.45
31528;BMP280;10206;48.012;10.030;2023-12-29T07:30:03;94831.06;;;9.42
31528;BMP280;10206;48.012;10.030;2023-12-29T07:32:30;94833.31;;;9.61
31528;BMP280;10206;48.012;10.030;2023-12-29T07:34:56;94834.88;;;9.47
31528;BMP280;10206;48.012;10.030;2023-12-29T07:37:23;94837.94;;;9.51
31528;BMP280;10206;48.012;10.030;2023-12-29T07:39:49;94848.81;;;9.76
31528;BMP280;10206;48.012;10.030;2023-12-29T07:42:15;94840.00;;;9.68
31528;BMP280;10206;48.012;10.030;2023-12-29T07:44:43;94844.88;;;9.69
31528;BMP280;10206;48.012;10.030;2023-12-29T07:47:09;94847.88;;;9.81
31528;BMP280;10206;48.012;10.030;2023-12-29T07:49:37;94842.44;;;9.81
31528;BMP280;10206;48.012;10.030;2023-12-29T07:52:03;94846.25;;;10.02
31528;BMP280;10206;48.012;10.030;2023-12-29T07:54:29;94843.06;;;9.89
31528;BMP280;10206;48.012;10.030;2023-12-29T07:56:56;94842.34;;;9.88
31528;BMP280;10206;48.012;10.030;2023-12-29T07:59:22;94851.00;;;9.77
31528;BMP280;10206;48.012;10.030;2023-12-29T08:01:48;94857.25;;;9.63
31528;BMP280;10206;48.012;10.030;2023-12-29T08:04:14;94852.81;;;9.50
31528;BMP280;10206;48.012;10.030;2023-12-29T08:06:40;94860.97;;;9.75
31528;BMP280;10206;48.012;10.030;2023-12-29T08:09:06;94866.13;;;9.88
31528;BMP280;10206;48.012;10.030;2023-12-29T08:11:33;94865.16;;;10.00
31528;BMP280;10206;48.012;10.030;2023-12-29T08:13:59;94862.13;;;9.89
31528;BMP280;10206;48.012;10.030;2023-12-29T08:16:25;94862.44;;;10.00
31528;BMP280;10206;48.012;10.030;2023-12-29T08:18:52;94861.59;;;9.90
31528;BMP280;10206;48.012;10.030;2023-12-29T08:21:21;94870.38;;;10.06
31528;BMP280;10206;48.012;10.030;2023-12-29T08:23:48;94854.56;;;10.04
31528;BMP280;10206;48.012;10.030;2023-12-29T08:26:15;94854.16;;;10.08
31528;BMP280;10206;48.012;10.030;2023-12-29T08:28:41;94859.31;;;10.21
31528;BMP280;10206;48.012;10.030;2023-12-29T08:31:07;94862.13;;;10.48
31528;BMP280;10206;48.012;10.030;2023-12-29T08:33:34;94863.97;;;10.45
31528;BMP280;10206;48.012;10.030;2023-12-29T08:36:02;94862.13;;;10.48
31528;BMP280;10206;48.012;10.030;2023-12-29T08:38:29;94862.69;;;10.63
31528;BMP280;10206;48.012;10.030;2023-12-29T08:40:57;94865.69;;;10.58
31528;BMP280;10206;48.012;10.030;2023-12-29T08:43:23;94862.22;;;10.57
31528;BMP280;10206;48.012;10.030;2023-12-29T08:45:49;94874.03;;;10.60
31528;BMP280;10206;48.012;10.030;2023-12-29T08:48:15;94868.84;;;10.98
31528;BMP280;10206;48.012;10.030;2023-12-29T08:50:42;94867.88;;;11.03
31528;BMP280;10206;48.012;10.030;2023-12-29T08:53:09;94870.94;;;10.73
31528;BMP280;10206;48.012;10.030;2023-12-29T08:55:35;94871.84;;;10.75
31528;BMP280;10206;48.012;10.030;2023-12-29T08:58:01;94885.72;;;10.87
31528;BMP280;10206;48.012;10.030;2023-12-29T09:00:28;94879.13;;;10.90
31528;BMP280;10206;48.012;10.030;2023-12-29T09:02:56;94871.75;;;10.83
31528;BMP280;10206;48.012;10.030;2023-12-29T09:05:22;94867.56;;;10.82
31528;BMP280;10206;48.012;10.030;2023-12-29T09:07:49;94875.94;;;10.84
31528;BMP280;10206;48.012;10.030;2023-12-29T09:10:15;94866.31;;;10.66
31528;BMP280;10206;48.012;10.030;2023-12-29T09:12:41;94869.75;;;10.83
31528;BMP280;10206;48.012;10.030;2023-12-29T09:15:08;94860.81;;;11.00
31528;BMP280;10206;48.012;10.030;2023-12-29T09:17:34;94870.41;;;10.74
31528;BMP280;10206;48.012;10.030;2023-12-29T09:20:01;94868.63;;;10.52
31528;BMP280;10206;48.012;10.030;2023-12-29T09:22:28;94873.47;;;10.61
31528;BMP280;10206;48.012;10.030;2023-12-29T09:24:54;94877.53;;;10.70
31528;BMP280;10206;48.012;10.030;2023-12-29T09:27:24;94880.66;;;10.83
31528;BMP280;10206;48.012;10.030;2023-12-29T09:29:50;94881.69;;;10.88
31528;BMP280;10206;48.012;10.030;2023-12-29T09:32:17;94884.59;;;10.73
31528;BMP280;10206;48.012;10.030;2023-12-29T09:34:43;94888.66;;;10.81
31528;BMP280;10206;48.012;10.030;2023-12-29T09:37:09;94878.66;;;10.67
31528;BMP280;10206;48.012;10.030;2023-12-29T09:39:35;94884.75;;;10.92
31528;BMP280;10206;48.012;10.030;2023-12-29T09:42:03;94876.88;;;10.79
31528;BMP280;10206;48.012;10.030;2023-12-29T09:44:31;94876.78;;;10.86
31528;BMP280;10206;48.012;10.030;2023-12-29T09:47:03;94879.03;;;10.97
31528;BMP280;10206;48.012;10.030;2023-12-29T09:49:37;94869.59;;;10.64
31528;BMP280;10206;48.012;10.030;2023-12-29T09:52:06;94870.28;;;10.99
31528;BMP280;10206;48.012;10.030;2023-12-29T09:54:33;94865.84;;;11.03
31528;BMP280;10206;48.012;10.030;2023-12-29T09:57:00;94864.47;;;11.12
31528;BMP280;10206;48.012;10.030;2023-12-29T09:59:27;94858.19;;;10.92
31528;BMP280;10206;48.012;10.030;2023-12-29T10:01:54;94864.63;;;11.14
31528;BMP280;10206;48.012;10.030;2023-12-29T10:04:21;94855.56;;;11.12
31528;BMP280;10206;48.012;10.030;2023-12-29T10:06:49;94846.19;;;11.05
31528;BMP280;10206;48.012;10.030;2023-12-29T10:09:17;94843.69;;;11.26
31528;BMP280;10206;48.012;10.030;2023-12-29T10:11:47;94851.19;;;11.26
31528;BMP280;10206;48.012;10.030;2023-12-29T10:16:55;94852.09;;;11.11
31528;BMP280;10206;48.012;10.030;2023-12-29T10:19:33;94852.34;;;11.32
31528;BMP280;10206;48.012;10.030;2023-12-29T10:24:55;94850.38;;;11.42
31528;BMP280;10206;48.012;10.030;2023-12-29T10:27:22;94856.41;;;11.67
31528;BMP280;10206;48.012;10.030;2023-12-29T10:29:48;94850.66;;;11.46
31528;BMP280;10206;48.012;10.030;2023-12-29T10:32:14;94845.63;;;11.43
31528;BMP280;10206;48.012;10.030;2023-12-29T10:34:41;94847.91;;;11.37
31528;BMP280;10206;48.012;10.030;2023-12-29T10:37:07;94838.56;;;11.66
31528;BMP280;10206;48.012;10.030;2023-12-29T10:39:39;94849.19;;;11.72
31528;BMP280;10206;48.012;10.030;2023-12-29T10:42:20;94833.19;;;11.68
31528;BMP280;10206;48.012;10.030;2023-12-29T10:44:46;94835.19;;;11.58
31528;BMP280;10206;48.012;10.030;2023-12-29T10:47:12;94833.53;;;11.72
31528;BMP280;10206;48.012;10.030;2023-12-29T10:49:40;94822.47;;;11.80
31528;BMP280;10206;48.012;10.030;2023-12-29T10:52:16;94812.72;;;11.87
31528;BMP280;10206;48.012;10.030;2023-12-29T10:54:43;94809.69;;;11.92
31528;BMP280;10206;48.012;10.030;2023-12-29T10:57:13;94815.59;;;11.98
31528;BMP280;10206;48.012;10.030;2023-12-29T10:59:40;94800.94;;;11.94
31528;BMP280;10206;48.012;10.030;2023-12-29T11:02:06;94799.78;;;12.06
31528;BMP280;10206;48.012;10.030;2023-12-29T11:04:34;94803.38;;;12.28
31528;BMP280;10206;48.012;10.030;2023-12-29T11:07:00;94805.41;;;12.37
31528;BMP280;10206;48.012;10.030;2023-12-29T11:09:30;94797.91;;;12.28
31528;BMP280;10206;48.012;10.030;2023-12-29T11:12:03;94794.44;;;12.56
31528;BMP280;10206;48.012;10.030;2023-12-29T11:14:30;94798.47;;;12.36
31528;BMP280;10206;48.012;10.030;2023-12-29T11:17:00;94798.47;;;12.55
31528;BMP280;10206;48.012;10.030;2023-12-29T11:19:27;94790.28;;;12.45
31528;BMP280;10206;48.012;10.030;2023-12-29T11:21:55;94793.06;;;12.95
31528;BMP280;10206;48.012;10.030;2023-12-29T11:24:23;94786.34;;;12.77
31528;BMP280;10206;48.012;10.030;2023-12-29T11:26:52;94794.72;;;12.60
31528;BMP280;10206;48.012;10.030;2023-12-29T11:29:18;94784.97;;;12.97
31528;BMP280;10206;48.012;10.030;2023-12-29T11:31:46;94783.97;;;13.02
31528;BMP280;10206;48.012;10.030;2023-12-29T11:34:25;94787.03;;;12.78
31528;BMP280;10206;48.012;10.030;2023-12-29T11:37:04;94781.28;;;12.83
31528;BMP280;10206;48.012;10.030;2023-12-29T11:39:50;94786.91;;;12.85
31528;BMP280;10206;48.012;10.030;2023-12-29T11:42:23;94775.88;;;13.04
31528;BMP280;10206;48.012;10.030;2023-12-29T11:44:53;94783.88;;;13.21
31528;BMP280;10206;48.012;10.030;2023-12-29T11:47:38;94780.09;;;13.26
31528;BMP280;10206;48.012;10.030;2023-12-29T11:50:05;94782.31;;;13.18
31528;BMP280;10206;48.012;10.030;2023-12-29T11:52:35;94783.16;;;13.21
31528;BMP280;10206;48.012;10.030;2023-12-29T11:55:11;94767.44;;;12.81
31528;BMP280;10206;48.012;10.030;2023-12-29T11:57:38;94770.66;;;13.08
31528;BMP280;10206;48.012;10.030;2023-12-29T12:00:06;94770.09;;;13.00
31528;BMP280;10206;48.012;10.030;2023-12-29T12:02:33;94759.72;;;13.08
31528;BMP280;10206;48.012;10.030;2023-12-29T12:04:59;94771.41;;;13.09
31528;BMP280;10206;48.012;10.030;2023-12-29T12:09:51;94773.78;;;13.24
31528;BMP280;10206;48.012;10.030;2023-12-29T12:12:39;94769.44;;;12.81
31528;BMP280;10206;48.012;10.030;2023-12-29T12:17:53;94771.38;;;13.40
31528;BMP280;10206;48.012;10.030;2023-12-29T12:20:19;94764.84;;;13.23
31528;BMP280;10206;48.012;10.030;2023-12-29T12:22:47;94753.25;;;13.35
31528;BMP280;10206;48.012;10.030;2023-12-29T12:25:16;94758.19;;;13.26
31528;BMP280;10206;48.012;10.030;2023-12-29T12:27:42;94748.03;;;13.08
31528;BMP280;10206;48.012;10.030;2023-12-29T12:30:08;94755.25;;;13.03
31528;BMP280;10206;48.012;10.030;2023-12-29T12:32:36;94752.69;;;13.26
31528;BMP280;10206;48.012;10.030;2023-12-29T12:35:02;94756.88;;;13.27
31528;BMP280;10206;48.012;10.030;2023-12-29T12:37:31;94749.63;;;13.42
31528;BMP280;10206;48.012;10.030;2023-12-29T12:39:57;94751.53;;;13.30
31528;BMP280;10206;48.012;10.030;2023-12-29T12:42:24;94748.03;;;13.08
31528;BMP280;10206;48.012;10.030;2023-12-29T12:44:55;94739.47;;;12.92
31528;BMP280;10206;48.012;10.030;2023-12-29T12:47:39;94736.41;;;12.98
31528;BMP280;10206;48.012;10.030;2023-12-29T12:50:08;94730.94;;;12.98
31528;BMP280;10206;48.012;10.030;2023-12-29T12:52:36;94742.13;;;13.11
31528;BMP280;10206;48.012;10.030;2023-12-29T12:55:02;94733.78;;;13.09
31528;BMP280;10206;48.012;10.030;2023-12-29T12:57:29;94738.44;;;12.97
31528;BMP280;10206;48.012;10.030;2023-12-29T12:59:56;94736.84;;;12.94
31528;BMP280;10206;48.012;10.030;2023-12-29T13:02:23;94735.19;;;13.10
31528;BMP280;10206;48.012;10.030;2023-12-29T13:04:50;94727.66;;;13.20
31528;BMP280;10206;48.012;10.030;2023-12-29T13:07:18;94732.78;;;13.05
31528;BMP280;10206;48.012;10.030;2023-12-29T13:09:46;94731.94;;;13.02
31528;BMP280;10206;48.012;10.030;2023-12-29T13:12:14;94733.63;;;13.07
31528;BMP280;10206;48.012;10.030;2023-12-29T13:14:42;94733.16;;;12.80
31528;BMP280;10206;48.012;10.030;2023-12-29T13:17:10;94734.06;;;13.04
31528;BMP280;10206;48.012;10.030;2023-12-29T13:19:37;94732.69;;;12.93
31528;BMP280;10206;48.012;10.030;2023-12-29T13:22:13;94738.81;;;13.03
31528;BMP280;10206;48.012;10.030;2023-12-29T13:24:47;94733.91;;;12.71
31528;BMP280;10206;48.012;10.030;2023-12-29T13:27:14;94734.75;;;12.83
31528;BMP280;10206;48.012;10.030;2023-12-29T13:29:42;94732.00;;;12.83
31528;BMP280;10206;48.012;10.030;2023-12-29T13:32:16;94731.13;;;12.81
31528;BMP280;10206;48.012;10.030;2023-12-29T13:34:47;94734.09;;;12.94
31528;BMP280;10206;48.012;10.030;2023-12-29T13:37:36;94739.00;;;13.05
31528;BMP280;10206;48.012;10.030;2023-12-29T13:40:15;94737.22;;;12.79
31528;BMP280;10206;48.012;10.030;2023-12-29T13:42:44;94739.56;;;12.94
31528;BMP280;10206;48.012;10.030;2023-12-29T13:45:12;94729.50;;;12.97
31528;BMP280;10206;48.012;10.030;2023-12-29T13:47:39;94739.63;;;12.85
31528;BMP280;10206;48.012;10.030;2023-12-29T13:50:08;94735.16;;;12.80
31528;BMP280;10206;48.012;10.030;2023-12-29T13:52:37;94735.31;;;12.82
31528;BMP280;10206;48.012;10.030;2023-12-29T13:55:03;94739.59;;;12.44
31528;BMP280;10206;48.012;10.030;2023-12-29T13:57:30;94739.09;;;12.67
31528;BMP280;10206;48.012;10.030;2023-12-29T13:59:57;94735.75;;;12.78
31528;BMP280;10206;48.012;10.030;2023-12-29T14:02:37;94739.22;;;12.79
31528;BMP280;10206;48.012;10.030;2023-12-29T14:08:16;94728.34;;;12.50
31528;BMP280;10206;48.012;10.030;2023-12-29T14:10:44;94723.63;;;12.41
31528;BMP280;10206;48.012;10.030;2023-12-29T14:13:15;94724.63;;;12.45
31528;BMP280;10206;48.012;10.030;2023-12-29T14:15:43;94727.38;;;12.17
31528;BMP280;10206;48.012;10.030;2023-12-29T14:21:27;94724.88;;;12.49
31528;BMP280;10206;48.012;10.030;2023-12-29T14:24:01;94731.94;;;12.53